sensor_id;sensor_type;location;lat;lon;timestamp;P1;durP1;ratioP1;P2;durP2;ratioP2
31442;SDS011;18065;55.876;9.830;2023-12-20T00:00:08;1.92;;;1.00;;
31442;SDS011;18065;55.876;9.830;2023-12-20T00:02:38;2.33;;;1.20;;
31442;SDS011;18065;55.876;9.830;2023-12-20T00:05:12;2.35;;;1.25;;
31442;SDS011;18065;55.876;9.830;2023-12-20T00:07:41;2.08;;;0.90;;
31442;SDS011;18065;55.876;9.830;2023-12-20T00:10:10;1.35;;;0.80;;
31442;SDS011;18065;55.876;9.830;2023-12-20T00:12:39;1.92;;;0.85;;
31442;SDS011;18065;55.876;9.830;2023-12-20T00:15:11;2.55;;;1.17;;
31442;SDS011;18065;55.876;9.830;2023-12-20T00:17:40;1.92;;;0.93;;
31442;SDS011;18065;55.876;9.830;2023-12-20T00:20:09;1.27;;;0.80;;
31442;SDS011;18065;55.876;9.830;2023-12-20T00:22:39;2.25;;;1.10;;
31442;SDS011;18065;55.876;9.830;2023-12-20T00:25:07;1.75;;;1.00;;
31442;SDS011;18065;55.876;9.830;2023-12-20T00:27:36;1.98;;;1.15;;
31442;SDS011;18065;55.876;9.830;2023-12-20T00:30:06;1.83;;;1.10;;
31442;SDS011;18065;55.876;9.830;2023-12-20T00:32:38;3.03;;;0.98;;
31442;SDS011;18065;55.876;9.830;2023-12-20T00:35:11;1.80;;;1.02;;
31442;SDS011;18065;55.876;9.830;2023-12-20T00:37:40;2.40;;;0.80;;
31442;SDS011;18065;55.876;9.830;2023-12-20T00:40:09;3.33;;;0.98;;
31442;SDS011;18065;55.876;9.830;2023-12-20T00:42:39;2.45;;;1.05;;
31442;SDS011;18065;55.876;9.830;2023-12-20T00:45:08;1.65;;;1.05;;
31442;SDS011;18065;55.876;9.830;2023-12-20T00:47:40;1.70;;;0.80;;
31442;SDS011;18065;55.876;9.830;2023-12-20T00:50:09;2.00;;;0.75;;
31442;SDS011;18065;55.876;9.830;2023-12-20T00:52:38;2.13;;;1.00;;
31442;SDS011;18065;55.876;9.830;2023-12-20T00:55:07;2.00;;;0.90;;
31442;SDS011;18065;55.876;9.830;2023-12-20T00:57:36;1.75;;;1.00;;
31442;SDS011;18065;55.876;9.830;2023-12-20T01:00:05;2.03;;;0.88;;
31442;SDS011;18065;55.876;9.830;2023-12-20T01:02:35;2.28;;;0.80;;
31442;SDS011;18065;55.876;9.830;2023-12-20T01:05:07;1.52;;;1.00;;
31442;SDS011;18065;55.876;9.830;2023-12-20T01:07:36;2.50;;;0.80;;
31442;SDS011;18065;55.876;9.830;2023-12-20T01:10:05;2.95;;;1.15;;
31442;SDS011;18065;55.876;9.830;2023-12-20T01:12:35;1.85;;;0.80;;
31442;SDS011;18065;55.876;9.830;2023-12-20T01:15:05;1.60;;;0.98;;
31442;SDS011;18065;55.876;9.830;2023-12-20T01:17:34;1.50;;;1.10;;
31442;SDS011;18065;55.876;9.830;2023-12-20T01:20:03;2.08;;;0.90;;
31442;SDS011;18065;55.876;9.830;2023-12-20T01:22:36;2.88;;;1.00;;
31442;SDS011;18065;55.876;9.830;2023-12-20T01:25:05;1.13;;;0.85;;
31442;SDS011;18065;55.876;9.830;2023-12-20T01:27:34;3.38;;;0.90;;
31442;SDS011;18065;55.876;9.830;2023-12-20T01:30:04;1.92;;;0.90;;
31442;SDS011;18065;55.876;9.830;2023-12-20T01:32:34;1.60;;;0.90;;
31442;SDS011;18065;55.876;9.830;2023-12-20T01:35:03;0.85;;;0.70;;
31442;SDS011;18065;55.876;9.830;2023-12-20T01:37:35;2.35;;;0.80;;
31442;SDS011;18065;55.876;9.830;2023-12-20T01:40:04;1.77;;;0.80;;
31442;SDS011;18065;55.876;9.830;2023-12-20T01:42:34;0.98;;;0.82;;
31442;SDS011;18065;55.876;9.830;2023-12-20T01:45:03;3.30;;;0.90;;
31442;SDS011;18065;55.876;9.830;2023-12-20T01:47:33;1.85;;;0.88;;
31442;SDS011;18065;55.876;9.830;2023-12-20T01:50:02;1.77;;;0.98;;
31442;SDS011;18065;55.876;9.830;2023-12-20T01:52:35;3.20;;;0.98;;
31442;SDS011;18065;55.876;9.830;2023-12-20T01:55:05;1.75;;;0.75;;
31442;SDS011;18065;55.876;9.830;2023-12-20T01:57:38;1.95;;;0.90;;
31442;SDS011;18065;55.876;9.830;2023-12-20T02:00:08;2.20;;;0.82;;
31442;SDS011;18065;55.876;9.830;2023-12-20T02:02:39;0.98;;;0.60;;
31442;SDS011;18065;55.876;9.830;2023-12-20T02:05:08;1.77;;;1.08;;
31442;SDS011;18065;55.876;9.830;2023-12-20T02:07:40;1.25;;;0.80;;
31442;SDS011;18065;55.876;9.830;2023-12-20T02:10:09;2.88;;;0.70;;
31442;SDS011;18065;55.876;9.830;2023-12-20T02:12:38;1.30;;;0.75;;
31442;SDS011;18065;55.876;9.830;2023-12-20T02:15:07;1.23;;;0.85;;
31442;SDS011;18065;55.876;9.830;2023-12-20T02:17:36;4.82;;;0.82;;
31442;SDS011;18065;55.876;9.830;2023-12-20T02:20:06;1.02;;;0.70;;
31442;SDS011;18065;55.876;9.830;2023-12-20T02:22:38;1.13;;;0.52;;
31442;SDS011;18065;55.876;9.830;2023-12-20T02:25:07;1.13;;;0.65;;
31442;SDS011;18065;55.876;9.830;2023-12-20T02:27:36;1.88;;;0.93;;
31442;SDS011;18065;55.876;9.830;2023-12-20T02:30:06;1.92;;;0.88;;
31442;SDS011;18065;55.876;9.830;2023-12-20T02:32:36;1.88;;;0.80;;
31442;SDS011;18065;55.876;9.830;2023-12-20T02:35:05;2.08;;;0.80;;
31442;SDS011;18065;55.876;9.830;2023-12-20T02:37:34;1.73;;;0.70;;
31442;SDS011;18065;55.876;9.830;2023-12-20T02:40:07;1.25;;;0.60;;
31442;SDS011;18065;55.876;9.830;2023-12-20T02:42:36;1.45;;;0.68;;
31442;SDS011;18065;55.876;9.830;2023-12-20T02:45:05;3.40;;;0.80;;
31442;SDS011;18065;55.876;9.830;2023-12-20T02:47:35;1.50;;;0.80;;
31442;SDS011;18065;55.876;9.830;2023-12-20T02:50:04;2.35;;;0.70;;
31442;SDS011;18065;55.876;9.830;2023-12-20T02:52:34;5.75;;;0.80;;
31442;SDS011;18065;55.876;9.830;2023-12-20T02:55:06;1.10;;;0.63;;
31442;SDS011;18065;55.876;9.830;2023-12-20T02:57:35;1.15;;;0.70;;
31442;SDS011;18065;55.876;9.830;2023-12-20T03:00:07;1.55;;;0.70;;
31442;SDS011;18065;55.876;9.830;2023-12-20T03:02:37;3.70;;;0.77;;
31442;SDS011;18065;55.876;9.830;2023-12-20T03:05:06;1.80;;;0.88;;
31442;SDS011;18065;55.876;9.830;2023-12-20T03:07:36;1.48;;;0.65;;
31442;SDS011;18065;55.876;9.830;2023-12-20T03:10:08;0.80;;;0.55;;
31442;SDS011;18065;55.876;9.830;2023-12-20T03:12:37;1.02;;;0.70;;
31442;SDS011;18065;55.876;9.830;2023-12-20T03:15:07;1.27;;;0.60;;
31442;SDS011;18065;55.876;9.830;2023-12-20T03:17:36;1.05;;;0.60;;
31442;SDS011;18065;55.876;9.830;2023-12-20T03:20:06;2.40;;;0.60;;
31442;SDS011;18065;55.876;9.830;2023-12-20T03:22:36;1.88;;;0.60;;
31442;SDS011;18065;55.876;9.830;2023-12-20T03:25:04;1.23;;;0.60;;
31442;SDS011;18065;55.876;9.830;2023-12-20T03:27:36;1.38;;;0.50;;
31442;SDS011;18065;55.876;9.830;2023-12-20T03:30:07;0.82;;;0.70;;
31442;SDS011;18065;55.876;9.830;2023-12-20T03:32:36;1.52;;;0.85;;
31442;SDS011;18065;55.876;9.830;2023-12-20T03:35:06;1.38;;;0.70;;
31442;SDS011;18065;55.876;9.830;2023-12-20T03:37:35;2.25;;;1.02;;
31442;SDS011;18065;55.876;9.830;2023-12-20T03:40:04;1.33;;;0.80;;
31442;SDS011;18065;55.876;9.830;2023-12-20T03:42:36;2.13;;;1.02;;
31442;SDS011;18065;55.876;9.830;2023-12-20T03:45:06;1.33;;;0.80;;
31442;SDS011;18065;55.876;9.830;2023-12-20T03:47:35;2.25;;;0.88;;
31442;SDS011;18065;55.876;9.830;2023-12-20T03:50:05;2.75;;;0.70;;
31442;SDS011;18065;55.876;9.830;2023-12-20T03:52:35;1.20;;;0.50;;
31442;SDS011;18065;55.876;9.830;2023-12-20T03:55:04;0.90;;;0.50;;
31442;SDS011;18065;55.876;9.830;2023-12-20T03:57:36;1.60;;;0.82;;
31442;SDS011;18065;55.876;9.830;2023-12-20T04:00:06;1.02;;;0.60;;
31442;SDS011;18065;55.876;9.830;2023-12-20T04:02:37;1.02;;;0.60;;
31442;SDS011;18065;55.876;9.830;2023-12-20T04:05:06;1.10;;;0.68;;
31442;SDS011;18065;55.876;9.830;2023-12-20T04:07:36;1.30;;;0.60;;
31442;SDS011;18065;55.876;9.830;2023-12-20T04:10:06;1.27;;;0.70;;
31442;SDS011;18065;55.876;9.830;2023-12-20T04:12:38;1.20;;;0.55;;
31442;SDS011;18065;55.876;9.830;2023-12-20T04:15:08;1.23;;;0.50;;
31442;SDS011;18065;55.876;9.830;2023-12-20T04:17:37;1.67;;;0.65;;
31442;SDS011;18065;55.876;9.830;2023-12-20T04:20:07;0.88;;;0.50;;
31442;SDS011;18065;55.876;9.830;2023-12-20T04:22:36;1.08;;;0.60;;
31442;SDS011;18065;55.876;9.830;2023-12-20T04:25:05;0.85;;;0.60;;
31442;SDS011;18065;55.876;9.830;2023-12-20T04:27:35;0.65;;;0.50;;
31442;SDS011;18065;55.876;9.830;2023-12-20T04:30:07;1.10;;;0.70;;
31442;SDS011;18065;55.876;9.830;2023-12-20T04:32:36;1.67;;;0.65;;
31442;SDS011;18065;55.876;9.830;2023-12-20T04:35:05;1.23;;;0.60;;
31442;SDS011;18065;55.876;9.830;2023-12-20T04:37:35;0.77;;;0.50;;
31442;SDS011;18065;55.876;9.830;2023-12-20T04:40:04;0.77;;;0.50;;
31442;SDS011;18065;55.876;9.830;2023-12-20T04:42:34;1.27;;;0.43;;
31442;SDS011;18065;55.876;9.830;2023-12-20T04:45:06;0.90;;;0.40;;
31442;SDS011;18065;55.876;9.830;2023-12-20T04:47:38;1.25;;;0.57;;
31442;SDS011;18065;55.876;9.830;2023-12-20T04:50:07;0.77;;;0.50;;
31442;SDS011;18065;55.876;9.830;2023-12-20T04:52:38;1.33;;;0.55;;
31442;SDS011;18065;55.876;9.830;2023-12-20T04:55:07;1.27;;;0.70;;
31442;SDS011;18065;55.876;9.830;2023-12-20T04:57:36;1.10;;;0.50;;
31442;SDS011;18065;55.876;9.830;2023-12-20T05:00:09;1.17;;;0.70;;
31442;SDS011;18065;55.876;9.830;2023-12-20T05:02:40;1.00;;;0.50;;
31442;SDS011;18065;55.876;9.830;2023-12-20T05:05:09;0.77;;;0.47;;
31442;SDS011;18065;55.876;9.830;2023-12-20T05:07:40;0.93;;;0.47;;
31442;SDS011;18065;55.876;9.830;2023-12-20T05:10:09;1.67;;;0.70;;
31442;SDS011;18065;55.876;9.830;2023-12-20T05:12:38;0.50;;;0.40;;
31442;SDS011;18065;55.876;9.830;2023-12-20T05:15:10;0.75;;;0.47;;
31442;SDS011;18065;55.876;9.830;2023-12-20T05:17:39;0.80;;;0.50;;
31442;SDS011;18065;55.876;9.830;2023-12-20T05:20:08;0.65;;;0.43;;
31442;SDS011;18065;55.876;9.830;2023-12-20T05:22:37;1.00;;;0.60;;
31442;SDS011;18065;55.876;9.830;2023-12-20T05:25:06;1.23;;;0.57;;
31442;SDS011;18065;55.876;9.830;2023-12-20T05:27:35;0.55;;;0.30;;
31442;SDS011;18065;55.876;9.830;2023-12-20T05:30:05;0.32;;;0.30;;
31442;SDS011;18065;55.876;9.830;2023-12-20T05:32:38;1.08;;;0.57;;
31442;SDS011;18065;55.876;9.830;2023-12-20T05:35:07;0.93;;;0.40;;
31442;SDS011;18065;55.876;9.830;2023-12-20T05:37:36;1.25;;;0.50;;
31442;SDS011;18065;55.876;9.830;2023-12-20T05:40:05;0.90;;;0.40;;
31442;SDS011;18065;55.876;9.830;2023-12-20T05:42:35;1.40;;;0.55;;
31442;SDS011;18065;55.876;9.830;2023-12-20T05:45:04;0.82;;;0.50;;
31442;SDS011;18065;55.876;9.830;2023-12-20T05:47:34;0.75;;;0.40;;
31442;SDS011;18065;55.876;9.830;2023-12-20T05:50:06;0.77;;;0.50;;
31442;SDS011;18065;55.876;9.830;2023-12-20T05:52:35;3.80;;;0.47;;
31442;SDS011;18065;55.876;9.830;2023-12-20T05:55:04;1.48;;;0.40;;
31442;SDS011;18065;55.876;9.830;2023-12-20T05:57:34;0.98;;;0.50;;
31442;SDS011;18065;55.876;9.830;2023-12-20T06:00:04;0.68;;;0.40;;
31442;SDS011;18065;55.876;9.830;2023-12-20T06:02:34;1.33;;;0.60;;
31442;SDS011;18065;55.876;9.830;2023-12-20T06:05:06;0.93;;;0.50;;
31442;SDS011;18065;55.876;9.830;2023-12-20T06:07:36;1.50;;;0.57;;
31442;SDS011;18065;55.876;9.830;2023-12-20T06:10:05;1.08;;;0.47;;
31442;SDS011;18065;55.876;9.830;2023-12-20T06:12:34;0.50;;;0.30;;
31442;SDS011;18065;55.876;9.830;2023-12-20T06:15:04;0.80;;;0.47;;
31442;SDS011;18065;55.876;9.830;2023-12-20T06:17:34;2.00;;;0.50;;
31442;SDS011;18065;55.876;9.830;2023-12-20T06:20:03;1.42;;;0.43;;
31442;SDS011;18065;55.876;9.830;2023-12-20T06:22:35;0.90;;;0.43;;
31442;SDS011;18065;55.876;9.830;2023-12-20T06:25:04;3.13;;;0.80;;
31442;SDS011;18065;55.876;9.830;2023-12-20T06:27:34;2.58;;;0.70;;
31442;SDS011;18065;55.876;9.830;2023-12-20T06:30:03;2.08;;;0.50;;
31442;SDS011;18065;55.876;9.830;2023-12-20T06:32:34;2.15;;;0.70;;
31442;SDS011;18065;55.876;9.830;2023-12-20T06:35:08;1.52;;;0.75;;
31442;SDS011;18065;55.876;9.830;2023-12-20T06:37:37;1.43;;;0.60;;
31442;SDS011;18065;55.876;9.830;2023-12-20T06:40:03;2.00;;;0.57;;
31442;SDS011;18065;55.876;9.830;2023-12-20T06:42:34;2.03;;;0.55;;
31442;SDS011;18065;55.876;9.830;2023-12-20T06:45:03;1.75;;;0.75;;
31442;SDS011;18065;55.876;9.830;2023-12-20T06:47:33;1.33;;;0.70;;
31442;SDS011;18065;55.876;9.830;2023-12-20T06:50:02;1.10;;;0.60;;
31442;SDS011;18065;55.876;9.830;2023-12-20T06:52:33;1.67;;;0.60;;
31442;SDS011;18065;55.876;9.830;2023-12-20T06:55:03;2.03;;;0.75;;
31442;SDS011;18065;55.876;9.830;2023-12-20T06:57:32;1.15;;;0.50;;
31442;SDS011;18065;55.876;9.830;2023-12-20T07:00:01;4.13;;;0.70;;
31442;SDS011;18065;55.876;9.830;2023-12-20T07:02:31;1.80;;;0.55;;
31442;SDS011;18065;55.876;9.830;2023-12-20T07:04:59;1.42;;;0.60;;
31442;SDS011;18065;55.876;9.830;2023-12-20T07:07:29;2.08;;;0.68;;
31442;SDS011;18065;55.876;9.830;2023-12-20T07:10:01;1.90;;;0.50;;
31442;SDS011;18065;55.876;9.830;2023-12-20T07:12:30;0.65;;;0.45;;
31442;SDS011;18065;55.876;9.830;2023-12-20T07:14:58;0.98;;;0.50;;
31442;SDS011;18065;55.876;9.830;2023-12-20T07:17:27;1.55;;;0.63;;
31442;SDS011;18065;55.876;9.830;2023-12-20T07:19:58;1.15;;;0.50;;
31442;SDS011;18065;55.876;9.830;2023-12-20T07:22:28;1.33;;;0.47;;
31442;SDS011;18065;55.876;9.830;2023-12-20T07:24:58;1.27;;;0.50;;
31442;SDS011;18065;55.876;9.830;2023-12-20T07:27:29;1.48;;;0.63;;
31442;SDS011;18065;55.876;9.830;2023-12-20T07:29:58;2.25;;;0.70;;
31442;SDS011;18065;55.876;9.830;2023-12-20T07:32:27;2.45;;;0.80;;
31442;SDS011;18065;55.876;9.830;2023-12-20T07:34:57;1.75;;;0.60;;
31442;SDS011;18065;55.876;9.830;2023-12-20T07:37:26;3.70;;;0.82;;
31442;SDS011;18065;55.876;9.830;2023-12-20T07:39:55;2.25;;;0.60;;
31442;SDS011;18065;55.876;9.830;2023-12-20T07:42:26;3.15;;;0.70;;
31442;SDS011;18065;55.876;9.830;2023-12-20T07:44:55;2.60;;;0.50;;
31442;SDS011;18065;55.876;9.830;2023-12-20T07:47:24;1.05;;;0.63;;
31442;SDS011;18065;55.876;9.830;2023-12-20T07:49:53;1.17;;;0.57;;
31442;SDS011;18065;55.876;9.830;2023-12-20T07:52:21;3.78;;;0.60;;
31442;SDS011;18065;55.876;9.830;2023-12-20T07:54:51;3.15;;;0.82;;
31442;SDS011;18065;55.876;9.830;2023-12-20T07:57:20;1.92;;;0.50;;
31442;SDS011;18065;55.876;9.830;2023-12-20T07:59:51;2.05;;;0.60;;
31442;SDS011;18065;55.876;9.830;2023-12-20T08:02:20;2.13;;;0.60;;
31442;SDS011;18065;55.876;9.830;2023-12-20T08:04:49;1.85;;;0.50;;
31442;SDS011;18065;55.876;9.830;2023-12-20T08:07:18;1.05;;;0.50;;
31442;SDS011;18065;55.876;9.830;2023-12-20T08:09:47;2.30;;;0.50;;
31442;SDS011;18065;55.876;9.830;2023-12-20T08:12:17;2.05;;;0.40;;
31442;SDS011;18065;55.876;9.830;2023-12-20T08:14:46;1.90;;;0.55;;
31442;SDS011;18065;55.876;9.830;2023-12-20T08:17:17;0.82;;;0.40;;
31442;SDS011;18065;55.876;9.830;2023-12-20T08:19:46;3.78;;;0.60;;
31442;SDS011;18065;55.876;9.830;2023-12-20T08:22:15;0.82;;;0.50;;
31442;SDS011;18065;55.876;9.830;2023-12-20T08:24:44;2.35;;;0.40;;
31442;SDS011;18065;55.876;9.830;2023-12-20T08:27:13;2.03;;;0.60;;
31442;SDS011;18065;55.876;9.830;2023-12-20T08:29:43;0.93;;;0.40;;
31442;SDS011;18065;55.876;9.830;2023-12-20T08:32:13;2.05;;;0.50;;
31442;SDS011;18065;55.876;9.830;2023-12-20T08:34:44;2.13;;;0.50;;
31442;SDS011;18065;55.876;9.830;2023-12-20T08:37:13;7.80;;;1.02;;
31442;SDS011;18065;55.876;9.830;2023-12-20T08:39:42;3.30;;;0.85;;
31442;SDS011;18065;55.876;9.830;2023-12-20T08:42:11;3.22;;;0.70;;
31442;SDS011;18065;55.876;9.830;2023-12-20T08:44:40;7.03;;;0.82;;
31442;SDS011;18065;55.876;9.830;2023-12-20T08:47:09;3.80;;;0.80;;
31442;SDS011;18065;55.876;9.830;2023-12-20T08:49:41;3.67;;;0.50;;
31442;SDS011;18065;55.876;9.830;2023-12-20T08:52:12;5.85;;;0.77;;
31442;SDS011;18065;55.876;9.830;2023-12-20T08:54:41;5.72;;;0.93;;
31442;SDS011;18065;55.876;9.830;2023-12-20T08:57:10;1.48;;;0.60;;
31442;SDS011;18065;55.876;9.830;2023-12-20T08:59:39;2.20;;;0.60;;
31442;SDS011;18065;55.876;9.830;2023-12-20T09:02:08;2.08;;;0.50;;
31442;SDS011;18065;55.876;9.830;2023-12-20T09:04:37;4.43;;;0.68;;
31442;SDS011;18065;55.876;9.830;2023-12-20T09:07:11;2.60;;;0.70;;
31442;SDS011;18065;55.876;9.830;2023-12-20T09:09:49;6.18;;;0.98;;
31442;SDS011;18065;55.876;9.830;2023-12-20T09:12:18;5.68;;;0.98;;
31442;SDS011;18065;55.876;9.830;2023-12-20T09:14:47;4.05;;;0.80;;
31442;SDS011;18065;55.876;9.830;2023-12-20T09:17:16;6.38;;;0.90;;
31442;SDS011;18065;55.876;9.830;2023-12-20T09:19:47;4.05;;;0.80;;
31442;SDS011;18065;55.876;9.830;2023-12-20T09:22:20;3.10;;;0.57;;
31442;SDS011;18065;55.876;9.830;2023-12-20T09:24:49;6.13;;;1.02;;
31442;SDS011;18065;55.876;9.830;2023-12-20T09:27:18;2.33;;;0.70;;
31442;SDS011;18065;55.876;9.830;2023-12-20T09:29:47;3.35;;;0.60;;
31442;SDS011;18065;55.876;9.830;2023-12-20T09:32:16;9.27;;;1.25;;
31442;SDS011;18065;55.876;9.830;2023-12-20T09:34:45;8.40;;;1.15;;
31442;SDS011;18065;55.876;9.830;2023-12-20T09:37:15;5.43;;;0.70;;
31442;SDS011;18065;55.876;9.830;2023-12-20T09:39:46;2.05;;;0.80;;
31442;SDS011;18065;55.876;9.830;2023-12-20T09:42:16;2.22;;;0.73;;
31442;SDS011;18065;55.876;9.830;2023-12-20T09:44:50;3.58;;;0.70;;
31442;SDS011;18065;55.876;9.830;2023-12-20T09:47:19;2.03;;;0.60;;
31442;SDS011;18065;55.876;9.830;2023-12-20T09:49:51;2.97;;;0.80;;
31442;SDS011;18065;55.876;9.830;2023-12-20T09:52:21;2.35;;;0.45;;
31442;SDS011;18065;55.876;9.830;2023-12-20T09:54:55;1.40;;;0.57;;
31442;SDS011;18065;55.876;9.830;2023-12-20T09:57:24;2.00;;;0.50;;
31442;SDS011;18065;55.876;9.830;2023-12-20T09:59:53;2.15;;;0.52;;
31442;SDS011;18065;55.876;9.830;2023-12-20T10:02:22;1.33;;;0.40;;
31442;SDS011;18065;55.876;9.830;2023-12-20T10:04:55;1.05;;;0.50;;
31442;SDS011;18065;55.876;9.830;2023-12-20T10:07:23;4.43;;;0.70;;
31442;SDS011;18065;55.876;9.830;2023-12-20T10:09:55;2.78;;;0.60;;
31442;SDS011;18065;55.876;9.830;2023-12-20T10:12:24;1.63;;;0.60;;
31442;SDS011;18065;55.876;9.830;2023-12-20T10:14:53;2.70;;;0.50;;
31442;SDS011;18065;55.876;9.830;2023-12-20T10:17:22;0.57;;;0.30;;
31442;SDS011;18065;55.876;9.830;2023-12-20T10:19:54;1.75;;;0.50;;
31442;SDS011;18065;55.876;9.830;2023-12-20T10:22:23;2.00;;;0.60;;
31442;SDS011;18065;55.876;9.830;2023-12-20T10:24:56;2.33;;;0.60;;
31442;SDS011;18065;55.876;9.830;2023-12-20T10:27:25;1.55;;;0.60;;
31442;SDS011;18065;55.876;9.830;2023-12-20T10:29:58;1.95;;;0.52;;
31442;SDS011;18065;55.876;9.830;2023-12-20T10:32:27;3.40;;;0.80;;
31442;SDS011;18065;55.876;9.830;2023-12-20T10:34:56;1.20;;;0.60;;
31442;SDS011;18065;55.876;9.830;2023-12-20T10:37:25;1.15;;;0.60;;
31442;SDS011;18065;55.876;9.830;2023-12-20T10:39:57;2.63;;;0.50;;
31442;SDS011;18065;55.876;9.830;2023-12-20T10:42:28;2.25;;;0.60;;
31442;SDS011;18065;55.876;9.830;2023-12-20T10:44:59;2.33;;;0.70;;
31442;SDS011;18065;55.876;9.830;2023-12-20T10:47:28;1.70;;;0.70;;
31442;SDS011;18065;55.876;9.830;2023-12-20T10:49:59;1.15;;;0.50;;
31442;SDS011;18065;55.876;9.830;2023-12-20T10:52:30;1.48;;;0.60;;
31442;SDS011;18065;55.876;9.830;2023-12-20T10:55:04;2.45;;;0.60;;
31442;SDS011;18065;55.876;9.830;2023-12-20T10:57:34;6.30;;;0.88;;
31442;SDS011;18065;55.876;9.830;2023-12-20T11:00:05;2.28;;;0.50;;
31442;SDS011;18065;55.876;9.830;2023-12-20T11:02:41;1.60;;;0.60;;
31442;SDS011;18065;55.876;9.830;2023-12-20T11:05:13;1.33;;;0.50;;
31442;SDS011;18065;55.876;9.830;2023-12-20T11:07:52;0.98;;;0.50;;
31442;SDS011;18065;55.876;9.830;2023-12-20T11:10:31;3.80;;;0.60;;
31442;SDS011;18065;55.876;9.830;2023-12-20T11:13:07;4.40;;;0.73;;
31442;SDS011;18065;55.876;9.830;2023-12-20T11:15:40;2.38;;;0.80;;
31442;SDS011;18065;55.876;9.830;2023-12-20T11:18:09;3.90;;;0.50;;
31442;SDS011;18065;55.876;9.830;2023-12-20T11:20:39;1.30;;;0.50;;
31442;SDS011;18065;55.876;9.830;2023-12-20T11:23:09;1.33;;;0.60;;
31442;SDS011;18065;55.876;9.830;2023-12-20T11:25:48;3.17;;;0.60;;
31442;SDS011;18065;55.876;9.830;2023-12-20T11:28:22;3.65;;;0.60;;
31442;SDS011;18065;55.876;9.830;2023-12-20T11:30:52;3.22;;;0.40;;
31442;SDS011;18065;55.876;9.830;2023-12-20T11:33:22;1.60;;;0.45;;
31442;SDS011;18065;55.876;9.830;2023-12-20T11:35:51;1.58;;;0.60;;
31442;SDS011;18065;55.876;9.830;2023-12-20T11:38:20;1.05;;;0.40;;
31442;SDS011;18065;55.876;9.830;2023-12-20T11:40:53;1.63;;;0.50;;
31442;SDS011;18065;55.876;9.830;2023-12-20T11:43:30;1.08;;;0.57;;
31442;SDS011;18065;55.876;9.830;2023-12-20T11:46:03;0.75;;;0.50;;
31442;SDS011;18065;55.876;9.830;2023-12-20T11:48:34;5.72;;;0.80;;
31442;SDS011;18065;55.876;9.830;2023-12-20T11:51:08;2.75;;;0.73;;
31442;SDS011;18065;55.876;9.830;2023-12-20T11:53:37;2.15;;;0.73;;
31442;SDS011;18065;55.876;9.830;2023-12-20T11:56:10;3.17;;;0.60;;
31442;SDS011;18065;55.876;9.830;2023-12-20T11:58:39;2.40;;;0.57;;
31442;SDS011;18065;55.876;9.830;2023-12-20T12:01:08;8.20;;;0.73;;
31442;SDS011;18065;55.876;9.830;2023-12-20T12:03:37;2.40;;;0.60;;
31442;SDS011;18065;55.876;9.830;2023-12-20T12:06:06;4.10;;;0.70;;
31442;SDS011;18065;55.876;9.830;2023-12-20T12:08:35;1.88;;;0.57;;
31442;SDS011;18065;55.876;9.830;2023-12-20T12:11:04;3.13;;;0.63;;
31442;SDS011;18065;55.876;9.830;2023-12-20T12:13:36;2.15;;;0.73;;
31442;SDS011;18065;55.876;9.830;2023-12-20T12:16:05;1.60;;;0.60;;
31442;SDS011;18065;55.876;9.830;2023-12-20T12:18:34;4.07;;;0.50;;
31442;SDS011;18065;55.876;9.830;2023-12-20T12:21:03;2.50;;;0.73;;
31442;SDS011;18065;55.876;9.830;2023-12-20T12:23:32;2.45;;;0.60;;
31442;SDS011;18065;55.876;9.830;2023-12-20T12:26:03;1.33;;;0.50;;
31442;SDS011;18065;55.876;9.830;2023-12-20T12:28:34;3.20;;;0.70;;
31442;SDS011;18065;55.876;9.830;2023-12-20T12:31:07;0.70;;;0.43;;
31442;SDS011;18065;55.876;9.830;2023-12-20T12:33:41;3.20;;;0.50;;
31442;SDS011;18065;55.876;9.830;2023-12-20T12:36:10;0.93;;;0.30;;
31442;SDS011;18065;55.876;9.830;2023-12-20T12:38:41;2.17;;;0.60;;
31442;SDS011;18065;55.876;9.830;2023-12-20T12:41:12;1.55;;;0.45;;
31442;SDS011;18065;55.876;9.830;2023-12-20T12:43:44;2.13;;;0.50;;
31442;SDS011;18065;55.876;9.830;2023-12-20T12:46:13;0.98;;;0.47;;
31442;SDS011;18065;55.876;9.830;2023-12-20T12:48:42;0.80;;;0.50;;
31442;SDS011;18065;55.876;9.830;2023-12-20T12:51:11;3.40;;;0.50;;
31442;SDS011;18065;55.876;9.830;2023-12-20T12:53:41;1.48;;;0.52;;
31442;SDS011;18065;55.876;9.830;2023-12-20T12:56:09;2.20;;;0.50;;
31442;SDS011;18065;55.876;9.830;2023-12-20T12:58:40;1.77;;;0.60;;
31442;SDS011;18065;55.876;9.830;2023-12-20T13:01:12;1.52;;;0.60;;
31442;SDS011;18065;55.876;9.830;2023-12-20T13:03:41;2.30;;;0.50;;
31442;SDS011;18065;55.876;9.830;2023-12-20T13:06:10;1.38;;;0.50;;
31442;SDS011;18065;55.876;9.830;2023-12-20T13:08:39;3.08;;;0.68;;
31442;SDS011;18065;55.876;9.830;2023-12-20T13:11:08;1.70;;;0.47;;
31442;SDS011;18065;55.876;9.830;2023-12-20T13:13:36;1.75;;;0.60;;
31442;SDS011;18065;55.876;9.830;2023-12-20T13:16:08;2.65;;;0.75;;
31442;SDS011;18065;55.876;9.830;2023-12-20T13:18:37;2.15;;;0.50;;
31442;SDS011;18065;55.876;9.830;2023-12-20T13:21:07;1.95;;;0.50;;
31442;SDS011;18065;55.876;9.830;2023-12-20T13:23:36;2.83;;;0.63;;
31442;SDS011;18065;55.876;9.830;2023-12-20T13:26:05;1.35;;;0.40;;
31442;SDS011;18065;55.876;9.830;2023-12-20T13:28:34;2.60;;;0.50;;
31442;SDS011;18065;55.876;9.830;2023-12-20T13:31:03;1.33;;;0.43;;
31442;SDS011;18065;55.876;9.830;2023-12-20T13:33:35;1.00;;;0.40;;
31442;SDS011;18065;55.876;9.830;2023-12-20T13:36:05;1.58;;;0.60;;
31442;SDS011;18065;55.876;9.830;2023-12-20T13:38:34;1.52;;;0.73;;
31442;SDS011;18065;55.876;9.830;2023-12-20T13:41:03;1.13;;;0.45;;
31442;SDS011;18065;55.876;9.830;2023-12-20T13:43:32;1.55;;;0.40;;
31442;SDS011;18065;55.876;9.830;2023-12-20T13:46:03;1.23;;;0.52;;
31442;SDS011;18065;55.876;9.830;2023-12-20T13:48:34;3.83;;;0.70;;
31442;SDS011;18065;55.876;9.830;2023-12-20T13:51:03;1.20;;;0.57;;
31442;SDS011;18065;55.876;9.830;2023-12-20T13:53:33;2.72;;;0.85;;
31442;SDS011;18065;55.876;9.830;2023-12-20T13:56:02;2.85;;;0.60;;
31442;SDS011;18065;55.876;9.830;2023-12-20T13:58:31;2.58;;;0.70;;
31442;SDS011;18065;55.876;9.830;2023-12-20T14:01:00;3.05;;;0.50;;
31442;SDS011;18065;55.876;9.830;2023-12-20T14:03:29;1.30;;;0.60;;
31442;SDS011;18065;55.876;9.830;2023-12-20T14:06:01;2.90;;;0.60;;
31442;SDS011;18065;55.876;9.830;2023-12-20T14:08:30;0.77;;;0.52;;
31442;SDS011;18065;55.876;9.830;2023-12-20T14:10:59;3.33;;;0.70;;
31442;SDS011;18065;55.876;9.830;2023-12-20T14:13:29;1.48;;;0.68;;
31442;SDS011;18065;55.876;9.830;2023-12-20T14:15:58;0.80;;;0.45;;
31442;SDS011;18065;55.876;9.830;2023-12-20T14:18:28;1.25;;;0.60;;
31442;SDS011;18065;55.876;9.830;2023-12-20T14:20:57;2.47;;;0.70;;
31442;SDS011;18065;55.876;9.830;2023-12-20T14:23:28;3.00;;;0.70;;
31442;SDS011;18065;55.876;9.830;2023-12-20T14:25:58;1.95;;;0.50;;
31442;SDS011;18065;55.876;9.830;2023-12-20T14:28:28;2.50;;;0.77;;
31442;SDS011;18065;55.876;9.830;2023-12-20T14:30:57;1.52;;;0.57;;
31442;SDS011;18065;55.876;9.830;2023-12-20T14:33:26;1.23;;;0.50;;
31442;SDS011;18065;55.876;9.830;2023-12-20T14:35:55;3.42;;;0.88;;
31442;SDS011;18065;55.876;9.830;2023-12-20T14:38:24;3.72;;;0.90;;
31442;SDS011;18065;55.876;9.830;2023-12-20T14:40:55;10.27;;;1.65;;
31442;SDS011;18065;55.876;9.830;2023-12-20T14:43:25;4.60;;;1.30;;
31442;SDS011;18065;55.876;9.830;2023-12-20T14:45:54;9.10;;;1.02;;
31442;SDS011;18065;55.876;9.830;2023-12-20T14:48:23;9.85;;;1.40;;
31442;SDS011;18065;55.876;9.830;2023-12-20T14:50:53;8.30;;;1.52;;
31442;SDS011;18065;55.876;9.830;2023-12-20T14:53:22;7.00;;;1.75;;
31442;SDS011;18065;55.876;9.830;2023-12-20T14:55:50;11.75;;;2.00;;
31442;SDS011;18065;55.876;9.830;2023-12-20T14:58:22;5.40;;;1.60;;
31442;SDS011;18065;55.876;9.830;2023-12-20T15:00:51;4.07;;;1.80;;
31442;SDS011;18065;55.876;9.830;2023-12-20T15:03:21;6.38;;;1.90;;